Time;durP1;ratioP1;P1;durP2;ratioP2;P2;SDS_P1;SDS_P2;PMS_P1;PMS_P2;Temp;Humidity;BMP_temperature;BMP_pressure;BME280_temperature;BME280_humidity;BME280_pressure;Samples;Min_cycle;Max_cycle;Signal;HPM_P1;HPM_P2
2023/09/15 00:00:47;;;;;;;6.53;2.45;;;;;;;;;;4993250;28;20042;-74
2023/09/15 00:03:13;;;;;;;3.58;2.05;;;;;;;;;;4975884;28;20018;-74
2023/09/15 00:05:38;;;;;;;4.07;2.00;;;;;;;;;;4993696;28;20103;-74
2023/09/15 00:08:05;;;;;;;2.90;1.98;;;;;;;;;;4993304;28;20033;-74
2023/09/15 00:10:31;;;;;;;5.05;2.08;;;;;;;;;;4993201;28;20373;-74
2023/09/15 00:12:58;;;;;;;3.78;1.88;;;;;;;;;;4975668;28;20050;-74
2023/09/15 00:15:24;;;;;;;4.35;2.00;;;;;;;;;;4993383;28;20027;-75
2023/09/15 00:17:49;;;;;;;3.83;2.35;;;;;;;;;;4993079;28;20030;-75
2023/09/15 00:20:14;;;;;;;3.28;2.00;;;;;;;;;;4975755;28;20512;-74
2023/09/15 00:22:48;;;;;;;3.05;1.83;;;;;;;;;;4993157;28;20018;-73
2023/09/15 00:25:14;;;;;;;4.57;2.25;;;;;;;;;;4993378;28;20114;-73
2023/09/15 00:27:40;;;;;;;2.47;1.80;;;;;;;;;;4975597;28;20022;-74
2023/09/15 00:30:05;;;;;;;4.45;2.00;;;;;;;;;;4993059;28;20030;-73
2023/09/15 00:32:30;;;;;;;3.88;2.10;;;;;;;;;;4992932;28;20037;-73
2023/09/15 00:34:56;;;;;;;3.42;2.22;;;;;;;;;;4993026;28;20029;-73
2023/09/15 00:37:21;;;;;;;3.75;2.03;;;;;;;;;;4975358;28;20146;-74
2023/09/15 00:39:46;;;;;;;6.13;2.78;;;;;;;;;;4977514;28;20033;-75
2023/09/15 00:42:12;;;;;;;3.92;2.20;;;;;;;;;;4996549;28;20371;-74
2023/09/15 00:44:37;;;;;;;7.15;2.00;;;;;;;;;;4979730;28;20092;-74
2023/09/15 00:47:05;;;;;;;5.78;2.10;;;;;;;;;;4996236;28;20548;-74
2023/09/15 00:49:30;;;;;;;5.80;1.90;;;;;;;;;;4978701;28;20512;-74
2023/09/15 00:51:56;;;;;;;6.60;1.90;;;;;;;;;;4997091;28;20034;-75
2023/09/15 00:54:21;;;;;;;6.00;2.00;;;;;;;;;;4996697;28;20030;-74
2023/09/15 00:56:47;;;;;;;3.58;2.15;;;;;;;;;;4996269;28;20058;-75
2023/09/15 00:59:13;;;;;;;4.70;2.45;;;;;;;;;;4996993;28;20038;-74
2023/09/15 01:01:40;;;;;;;4.55;1.85;;;;;;;;;;4978750;28;20022;-74
2023/09/15 01:04:08;;;;;;;3.10;1.90;;;;;;;;;;4979497;28;20037;-74
2023/09/15 01:06:34;;;;;;;3.38;2.10;;;;;;;;;;4996086;28;20440;-74
2023/09/15 01:09:00;;;;;;;4.07;1.98;;;;;;;;;;4995792;28;20049;-75
2023/09/15 01:11:27;;;;;;;3.17;1.80;;;;;;;;;;4995776;28;20043;-74
2023/09/15 01:13:52;;;;;;;4.18;2.17;;;;;;;;;;4995913;28;20031;-74
2023/09/15 01:16:29;;;;;;;5.30;2.15;;;;;;;;;;4995944;28;20023;-74
2023/09/15 01:19:39;;;;;;;4.50;2.38;;;;;;;;;;4978234;28;20026;-74
2023/09/15 01:22:34;;;;;;;4.43;2.22;;;;;;;;;;4995823;28;20026;-74
2023/09/15 01:25:20;;;;;;;3.33;1.90;;;;;;;;;;4995854;28;20061;-74
2023/09/15 01:27:53;;;;;;;5.50;2.00;;;;;;;;;;4995859;28;20482;-74
2023/09/15 01:30:21;;;;;;;4.82;2.10;;;;;;;;;;4995735;28;20118;-73
2023/09/15 01:32:49;;;;;;;3.90;2.00;;;;;;;;;;4995310;28;20513;-74
2023/09/15 01:35:15;;;;;;;4.45;2.25;;;;;;;;;;4977905;28;20037;-74
2023/09/15 01:37:40;;;;;;;3.07;2.17;;;;;;;;;;4977757;28;20393;-75
2023/09/15 01:40:06;;;;;;;4.80;2.00;;;;;;;;;;4995601;28;20635;-74
2023/09/15 01:42:32;;;;;;;4.80;2.13;;;;;;;;;;4995381;28;20498;-74
2023/09/15 01:44:57;;;;;;;3.90;1.80;;;;;;;;;;4995153;28;20022;-74
2023/09/15 01:47:23;;;;;;;2.58;1.70;;;;;;;;;;4977700;28;20117;-74
2023/09/15 01:49:50;;;;;;;3.40;1.90;;;;;;;;;;4995133;28;20393;-74
2023/09/15 01:52:16;;;;;;;3.47;1.98;;;;;;;;;;4994443;28;20185;-74
2023/09/15 01:54:42;;;;;;;5.85;2.10;;;;;;;;;;4977600;28;20535;-74
2023/09/15 01:57:07;;;;;;;4.85;2.03;;;;;;;;;;4995192;28;20018;-74
2023/09/15 01:59:33;;;;;;;5.30;2.00;;;;;;;;;;4995114;28;20027;-74
2023/09/15 02:01:58;;;;;;;3.03;2.20;;;;;;;;;;4994872;28;20492;-74
2023/09/15 02:04:23;;;;;;;4.45;2.00;;;;;;;;;;4994608;28;20054;-74
2023/09/15 02:06:49;;;;;;;3.20;2.00;;;;;;;;;;4994719;28;20081;-75
2023/09/15 02:09:15;;;;;;;3.65;2.10;;;;;;;;;;4994680;28;20014;-74
2023/09/15 02:11:40;;;;;;;3.58;2.20;;;;;;;;;;4995226;28;20053;-74
2023/09/15 02:14:06;;;;;;;6.47;1.98;;;;;;;;;;4994552;28;20453;-74
2023/09/15 02:16:31;;;;;;;3.22;2.00;;;;;;;;;;4994523;28;20044;-74
2023/09/15 02:18:57;;;;;;;5.70;2.10;;;;;;;;;;4994447;28;20050;-74
2023/09/15 02:21:22;;;;;;;6.30;2.00;;;;;;;;;;4976997;28;20026;-74
2023/09/15 02:23:47;;;;;;;3.35;1.77;;;;;;;;;;4994414;28;20476;-74
2023/09/15 02:26:12;;;;;;;3.13;1.90;;;;;;;;;;4994391;28;20109;-74
2023/09/15 02:28:37;;;;;;;2.70;1.92;;;;;;;;;;4994605;28;20615;-73
2023/09/15 02:31:04;;;;;;;3.50;1.90;;;;;;;;;;4994325;28;20057;-74
2023/09/15 02:33:29;;;;;;;3.33;2.00;;;;;;;;;;4976733;28;20778;-74
2023/09/15 02:35:54;;;;;;;3.10;1.80;;;;;;;;;;4994186;28;20030;-74
2023/09/15 02:38:20;;;;;;;5.10;2.20;;;;;;;;;;4994430;28;20030;-74
2023/09/15 02:40:45;;;;;;;3.13;1.92;;;;;;;;;;4976653;28;20248;-74
2023/09/15 02:43:10;;;;;;;2.73;1.87;;;;;;;;;;4993994;28;20022;-74
2023/09/15 02:45:36;;;;;;;3.33;1.90;;;;;;;;;;4994047;28;20279;-74
2023/09/15 02:48:02;;;;;;;5.20;1.95;;;;;;;;;;4993982;28;20270;-74
2023/09/15 02:50:27;;;;;;;3.42;1.88;;;;;;;;;;4976534;28;20026;-74
2023/09/15 02:52:53;;;;;;;4.50;1.95;;;;;;;;;;4993853;28;20077;-74
2023/09/15 02:55:19;;;;;;;3.20;2.08;;;;;;;;;;4993831;28;20026;-74
2023/09/15 02:57:44;;;;;;;6.00;2.22;;;;;;;;;;4976208;28;20022;-75
2023/09/15 03:00:13;;;;;;;4.72;2.08;;;;;;;;;;4993800;28;20034;-74
2023/09/15 03:02:40;;;;;;;2.90;1.75;;;;;;;;;;4976090;28;20473;-74
2023/09/15 03:05:06;;;;;;;3.17;1.80;;;;;;;;;;4993751;28;20022;-74
2023/09/15 03:07:32;;;;;;;2.75;1.95;;;;;;;;;;4993912;28;20516;-75
2023/09/15 03:09:57;;;;;;;2.95;1.92;;;;;;;;;;4993733;28;20065;-74
2023/09/15 03:12:22;;;;;;;3.67;2.00;;;;;;;;;;4976788;28;20118;-74
2023/09/15 03:14:50;;;;;;;3.33;1.80;;;;;;;;;;4993883;28;20490;-74
2023/09/15 03:17:15;;;;;;;2.80;1.92;;;;;;;;;;4993635;28;20061;-74
2023/09/15 03:19:40;;;;;;;3.37;1.83;;;;;;;;;;4993777;28;20038;-74
2023/09/15 03:22:05;;;;;;;3.38;2.00;;;;;;;;;;4993632;28;20343;-74
2023/09/15 03:24:31;;;;;;;4.80;2.10;;;;;;;;;;4993537;28;20482;-74
2023/09/15 03:26:56;;;;;;;3.90;1.92;;;;;;;;;;4993769;28;20096;-74
2023/09/15 03:29:22;;;;;;;3.85;1.90;;;;;;;;;;4975398;28;20018;-75
2023/09/15 03:31:47;;;;;;;3.85;1.90;;;;;;;;;;4992204;28;20504;-76
2023/09/15 03:34:12;;;;;;;2.93;1.90;;;;;;;;;;4993193;28;20033;-74
2023/09/15 03:36:38;;;;;;;2.92;1.67;;;;;;;;;;4993024;28;20256;-75
2023/09/15 03:39:03;;;;;;;3.95;2.08;;;;;;;;;;4992352;28;20415;-73
2023/09/15 03:41:29;;;;;;;3.30;1.95;;;;;;;;;;4975451;28;20057;-75
2023/09/15 03:43:55;;;;;;;3.20;2.00;;;;;;;;;;4993249;28;20096;-74
2023/09/15 03:46:20;;;;;;;3.63;2.05;;;;;;;;;;4993473;28;20054;-74
2023/09/15 03:48:46;;;;;;;3.22;1.85;;;;;;;;;;4994440;28;20108;-74
2023/09/15 03:51:11;;;;;;;2.53;2.03;;;;;;;;;;4976089;28;20121;-73
2023/09/15 03:53:37;;;;;;;3.42;2.28;;;;;;;;;;4994146;28;20505;-73
2023/09/15 03:56:03;;;;;;;2.85;1.98;;;;;;;;;;4993654;28;20489;-73
2023/09/15 03:58:28;;;;;;;2.58;2.00;;;;;;;;;;4975686;28;20046;-73
2023/09/15 04:00:54;;;;;;;2.97;1.90;;;;;;;;;;4993175;28;20037;-73
2023/09/15 04:03:20;;;;;;;3.30;2.10;;;;;;;;;;4993505;28;20049;-74
2023/09/15 04:05:46;;;;;;;4.13;1.92;;;;;;;;;;4993476;28;20425;-74
2023/09/15 04:08:11;;;;;;;4.20;2.28;;;;;;;;;;4993173;28;20034;-73
2023/09/15 04:10:38;;;;;;;4.38;2.13;;;;;;;;;;4975760;28;20030;-74
2023/09/15 04:13:03;;;;;;;2.67;1.83;;;;;;;;;;4993142;28;20105;-74
2023/09/15 04:15:29;;;;;;;2.85;1.90;;;;;;;;;;4996355;28;20061;-74
2023/09/15 04:17:55;;;;;;;4.25;2.20;;;;;;;;;;4996727;28;20022;-74
2023/09/15 04:20:20;;;;;;;4.60;1.70;;;;;;;;;;4996612;28;20539;-74
2023/09/15 04:22:46;;;;;;;5.53;2.15;;;;;;;;;;4996553;28;20026;-74
2023/09/15 04:25:11;;;;;;;2.80;1.98;;;;;;;;;;4996608;28;20023;-74
2023/09/15 04:27:37;;;;;;;4.78;2.10;;;;;;;;;;4997336;28;20462;-74
2023/09/15 04:30:02;;;;;;;2.58;1.92;;;;;;;;;;4996780;28;20097;-74
2023/09/15 04:32:28;;;;;;;4.03;2.30;;;;;;;;;;4996352;28;20054;-75
2023/09/15 04:34:54;;;;;;;3.40;2.20;;;;;;;;;;4996522;28;20496;-74
2023/09/15 04:37:20;;;;;;;3.20;2.08;;;;;;;;;;4978932;28;20030;-74
2023/09/15 04:39:46;;;;;;;2.72;1.83;;;;;;;;;;4979332;28;20022;-75
2023/09/15 04:42:12;;;;;;;4.25;2.47;;;;;;;;;;4996333;28;20401;-75
2023/09/15 04:44:37;;;;;;;3.72;2.10;;;;;;;;;;4996442;28;20030;-74
2023/09/15 04:47:03;;;;;;;4.68;2.10;;;;;;;;;;4996584;28;20026;-74
2023/09/15 04:49:28;;;;;;;6.13;2.13;;;;;;;;;;4996213;28;20034;-74
2023/09/15 04:51:54;;;;;;;2.90;1.80;;;;;;;;;;4996106;28;20022;-75
2023/09/15 04:54:19;;;;;;;3.00;1.95;;;;;;;;;;4996019;28;20065;-74
2023/09/15 04:56:44;;;;;;;7.50;1.95;;;;;;;;;;4978643;28;20465;-74
2023/09/15 04:59:15;;;;;;;2.93;1.97;;;;;;;;;;4996074;28;20037;-74
2023/09/15 05:01:44;;;;;;;2.92;2.15;;;;;;;;;;4995956;28;20248;-74
2023/09/15 05:04:10;;;;;;;4.38;1.85;;;;;;;;;;4996177;28;20454;-74
2023/09/15 05:06:35;;;;;;;3.58;2.00;;;;;;;;;;4978720;28;20064;-74
2023/09/15 05:09:02;;;;;;;3.78;1.80;;;;;;;;;;4995949;28;20054;-74
2023/09/15 05:11:27;;;;;;;3.75;2.08;;;;;;;;;;4978388;28;20117;-75
2023/09/15 05:13:52;;;;;;;3.67;2.20;;;;;;;;;;4978865;28;20441;-74
2023/09/15 05:16:19;;;;;;;5.50;2.30;;;;;;;;;;4996651;28;20256;-74
2023/09/15 05:18:45;;;;;;;5.20;1.92;;;;;;;;;;4996291;28;20315;-74
2023/09/15 05:21:11;;;;;;;2.95;2.10;;;;;;;;;;4996015;28;20065;-74
2023/09/15 05:23:36;;;;;;;5.53;2.08;;;;;;;;;;4978446;28;20109;-74
2023/09/15 05:26:01;;;;;;;3.47;2.13;;;;;;;;;;4979143;28;20552;-75
2023/09/15 05:28:27;;;;;;;3.53;2.00;;;;;;;;;;4996465;28;20022;-74
2023/09/15 05:30:57;;;;;;;4.70;1.90;;;;;;;;;;4997588;28;20022;-74
2023/09/15 05:33:22;;;;;;;5.95;1.92;;;;;;;;;;4995813;28;20076;-74
2023/09/15 05:35:48;;;;;;;2.80;1.98;;;;;;;;;;4997476;28;20027;-76
2023/09/15 05:38:14;;;;;;;3.42;2.05;;;;;;;;;;4996418;28;20442;-74
2023/09/15 05:40:39;;;;;;;4.50;1.90;;;;;;;;;;4994753;28;20557;-75
2023/09/15 05:43:04;;;;;;;2.63;1.92;;;;;;;;;;4994573;28;20101;-74
2023/09/15 05:45:30;;;;;;;3.35;2.00;;;;;;;;;;4995559;28;20084;-74
2023/09/15 05:47:55;;;;;;;3.38;2.10;;;;;;;;;;4995393;28;20029;-74
2023/09/15 05:50:20;;;;;;;4.22;1.98;;;;;;;;;;4977789;28;20122;-74
2023/09/15 05:52:45;;;;;;;2.67;1.88;;;;;;;;;;4995196;28;20030;-74
2023/09/15 05:55:11;;;;;;;4.00;2.20;;;;;;;;;;4995230;28;20058;-74
2023/09/15 05:57:36;;;;;;;5.00;2.05;;;;;;;;;;4995358;28;20263;-74
2023/09/15 06:00:01;;;;;;;2.72;1.95;;;;;;;;;;4995418;28;20022;-74
2023/09/15 06:02:28;;;;;;;4.40;1.88;;;;;;;;;;4995187;28;20029;-74
2023/09/15 06:04:53;;;;;;;2.55;1.90;;;;;;;;;;4978084;28;20033;-74
2023/09/15 06:07:18;;;;;;;3.78;1.90;;;;;;;;;;4995343;28;20104;-74
2023/09/15 06:09:44;;;;;;;3.22;2.10;;;;;;;;;;4995256;28;20014;-74
2023/09/15 06:12:09;;;;;;;2.95;2.05;;;;;;;;;;4978067;28;20022;-73
2023/09/15 06:14:36;;;;;;;4.22;2.00;;;;;;;;;;4995087;28;20109;-73
2023/09/15 06:17:02;;;;;;;6.00;1.95;;;;;;;;;;4977495;28;20022;-74
2023/09/15 06:19:28;;;;;;;2.78;2.00;;;;;;;;;;4977617;28;20378;-74
2023/09/15 06:21:53;;;;;;;3.53;2.20;;;;;;;;;;4994806;28;20367;-74
2023/09/15 06:24:18;;;;;;;3.05;1.77;;;;;;;;;;4994851;28;20371;-74
2023/09/15 06:26:43;;;;;;;2.65;2.08;;;;;;;;;;4994760;28;20022;-74
2023/09/15 06:29:09;;;;;;;3.50;2.17;;;;;;;;;;4994740;28;20045;-74
2023/09/15 06:31:35;;;;;;;3.67;2.22;;;;;;;;;;4994714;28;20034;-74
2023/09/15 06:34:00;;;;;;;3.53;2.20;;;;;;;;;;4994852;28;20022;-74
2023/09/15 06:36:26;;;;;;;4.88;2.35;;;;;;;;;;4978647;28;20081;-74
2023/09/15 06:38:51;;;;;;;3.30;2.13;;;;;;;;;;4994620;28;20386;-74
2023/09/15 06:41:17;;;;;;;5.20;1.98;;;;;;;;;;4977390;28;20033;-74
2023/09/15 06:43:42;;;;;;;4.35;2.25;;;;;;;;;;4994607;28;20035;-73
2023/09/15 06:46:08;;;;;;;4.28;2.50;;;;;;;;;;4995957;28;20027;-73
2023/09/15 06:48:33;;;;;;;4.63;2.53;;;;;;;;;;4996298;28;20034;-74
2023/09/15 06:50:58;;;;;;;3.17;2.37;;;;;;;;;;4995612;28;20022;-74
2023/09/15 06:53:24;;;;;;;4.80;2.50;;;;;;;;;;4994560;28;20263;-74
2023/09/15 06:55:49;;;;;;;6.50;2.45;;;;;;;;;;4994458;28;20030;-74
2023/09/15 06:58:14;;;;;;;3.60;2.33;;;;;;;;;;4994496;28;20050;-74
2023/09/15 07:00:40;;;;;;;3.63;2.10;;;;;;;;;;4977416;28;20030;-74
2023/09/15 07:03:05;;;;;;;6.40;2.30;;;;;;;;;;4994479;28;20026;-74
2023/09/15 07:05:30;;;;;;;7.27;1.90;;;;;;;;;;4994563;28;20022;-74
2023/09/15 07:07:55;;;;;;;5.17;1.93;;;;;;;;;;4994436;28;20803;-74
2023/09/15 07:10:21;;;;;;;4.20;2.05;;;;;;;;;;4994279;28;20747;-74
2023/09/15 07:12:46;;;;;;;4.00;2.20;;;;;;;;;;4994783;28;20405;-74
2023/09/15 07:15:13;;;;;;;4.43;2.30;;;;;;;;;;4994791;28;20023;-74
2023/09/15 07:17:39;;;;;;;4.25;2.17;;;;;;;;;;4976691;28;20256;-74
2023/09/15 07:20:04;;;;;;;3.80;1.90;;;;;;;;;;4994478;28;20096;-75
2023/09/15 07:22:30;;;;;;;3.15;1.90;;;;;;;;;;4994652;28;20279;-75
2023/09/15 07:24:56;;;;;;;4.65;2.30;;;;;;;;;;4976702;28;20451;-73
2023/09/15 07:27:24;;;;;;;6.97;2.20;;;;;;;;;;4994250;28;20392;-74
2023/09/15 07:29:50;;;;;;;3.28;2.22;;;;;;;;;;4976792;28;20437;-74
2023/09/15 07:32:15;;;;;;;3.33;2.10;;;;;;;;;;4976523;28;20072;-74
2023/09/15 07:34:41;;;;;;;3.58;2.10;;;;;;;;;;4994662;28;20026;-74
2023/09/15 07:37:06;;;;;;;3.75;2.22;;;;;;;;;;4994156;28;20405;-74
2023/09/15 07:39:32;;;;;;;3.42;2.20;;;;;;;;;;4993765;28;20037;-75
2023/09/15 07:41:57;;;;;;;3.15;2.10;;;;;;;;;;4976702;28;20054;-74
2023/09/15 07:44:23;;;;;;;2.97;1.90;;;;;;;;;;4993876;28;20037;-74
2023/09/15 07:46:48;;;;;;;5.38;1.83;;;;;;;;;;4994023;28;20460;-74
2023/09/15 07:49:13;;;;;;;3.70;2.08;;;;;;;;;;4995587;28;20030;-74
2023/09/15 07:51:38;;;;;;;3.08;2.10;;;;;;;;;;4998248;28;20030;-74
2023/09/15 07:54:04;;;;;;;5.23;2.10;;;;;;;;;;4997821;28;20030;-74
2023/09/15 07:56:29;;;;;;;5.22;2.28;;;;;;;;;;4998260;28;20255;-74
2023/09/15 07:58:54;;;;;;;3.72;2.17;;;;;;;;;;4980899;28;20049;-74
2023/09/15 08:01:20;;;;;;;8.13;2.42;;;;;;;;;;4998180;28;20026;-74
2023/09/15 08:03:45;;;;;;;6.45;2.20;;;;;;;;;;4997732;28;20045;-74
2023/09/15 08:06:11;;;;;;;4.15;1.90;;;;;;;;;;4998408;28;20468;-74
2023/09/15 08:08:36;;;;;;;4.80;2.03;;;;;;;;;;4997827;28;20027;-74
2023/09/15 08:11:02;;;;;;;2.95;2.13;;;;;;;;;;4997884;28;20018;-74
2023/09/15 08:13:27;;;;;;;6.97;2.10;;;;;;;;;;4997676;28;20038;-74
2023/09/15 08:15:52;;;;;;;2.77;2.00;;;;;;;;;;4997647;28;20088;-74
2023/09/15 08:18:22;;;;;;;3.72;2.00;;;;;;;;;;4997750;28;20378;-74
2023/09/15 08:20:48;;;;;;;3.85;2.10;;;;;;;;;;4997667;28;20023;-74
2023/09/15 08:23:13;;;;;;;3.83;2.10;;;;;;;;;;4997438;28;20033;-74
2023/09/15 08:25:39;;;;;;;3.58;2.05;;;;;;;;;;4997490;28;20030;-74
2023/09/15 08:28:06;;;;;;;2.72;1.90;;;;;;;;;;4980174;28;20022;-74
2023/09/15 08:30:33;;;;;;;4.55;2.00;;;;;;;;;;4997638;28;20132;-74
2023/09/15 08:32:58;;;;;;;3.03;1.85;;;;;;;;;;4997163;28;20025;-74
2023/09/15 08:35:24;;;;;;;3.83;2.30;;;;;;;;;;4997514;28;20026;-74
2023/09/15 08:37:49;;;;;;;2.47;1.88;;;;;;;;;;4997539;28;20030;-74
2023/09/15 08:40:14;;;;;;;2.92;2.10;;;;;;;;;;4997576;28;20026;-74
2023/09/15 08:42:39;;;;;;;3.65;2.08;;;;;;;;;;4980488;28;20037;-74
2023/09/15 08:45:05;;;;;;;4.68;2.20;;;;;;;;;;4997257;28;20533;-74
2023/09/15 08:47:39;;;;;;;3.65;1.98;;;;;;;;;;4997180;28;20156;-74
2023/09/15 08:50:05;;;;;;;5.22;2.20;;;;;;;;;;4997087;28;20038;-74
2023/09/15 08:52:30;;;;;;;4.28;1.92;;;;;;;;;;4997001;28;20071;-74
2023/09/15 08:54:56;;;;;;;5.93;2.15;;;;;;;;;;4996922;28;20030;-74
2023/09/15 08:57:22;;;;;;;3.75;1.90;;;;;;;;;;4996603;28;20033;-74
2023/09/15 08:59:50;;;;;;;3.30;1.70;;;;;;;;;;4995787;28;20030;-74
2023/09/15 09:02:16;;;;;;;3.90;2.10;;;;;;;;;;4979015;28;20033;-74
2023/09/15 09:04:41;;;;;;;3.75;2.00;;;;;;;;;;4996349;28;20022;-74
2023/09/15 09:07:07;;;;;;;4.47;2.00;;;;;;;;;;4996634;28;20050;-74
2023/09/15 09:09:34;;;;;;;8.25;2.22;;;;;;;;;;4996288;28;20030;-74
2023/09/15 09:11:59;;;;;;;3.78;1.90;;;;;;;;;;4996952;28;20050;-74
2023/09/15 09:14:25;;;;;;;6.13;2.33;;;;;;;;;;4996119;28;20489;-73
2023/09/15 09:16:52;;;;;;;4.68;1.90;;;;;;;;;;4996472;28;20461;-74
2023/09/15 09:19:17;;;;;;;3.65;1.90;;;;;;;;;;4996193;28;20037;-73
2023/09/15 09:21:44;;;;;;;4.22;2.08;;;;;;;;;;4996158;28;20117;-74
2023/09/15 09:24:10;;;;;;;3.55;1.90;;;;;;;;;;4996106;28;20026;-74
2023/09/15 09:26:35;;;;;;;3.50;1.75;;;;;;;;;;4995887;28;20443;-74
2023/09/15 09:29:02;;;;;;;4.15;2.00;;;;;;;;;;4995259;28;20028;-73
2023/09/15 09:31:28;;;;;;;3.08;1.85;;;;;;;;;;4995957;28;20030;-74
2023/09/15 09:33:55;;;;;;;3.05;1.60;;;;;;;;;;4994941;28;20148;-74
2023/09/15 09:36:21;;;;;;;2.78;1.90;;;;;;;;;;4977485;28;20026;-73
2023/09/15 09:38:48;;;;;;;3.45;1.83;;;;;;;;;;4995293;28;20029;-74
2023/09/15 09:41:16;;;;;;;2.95;1.90;;;;;;;;;;4995358;28;20030;-75
2023/09/15 09:43:46;;;;;;;3.22;1.60;;;;;;;;;;4976785;28;20121;-74
2023/09/15 09:46:13;;;;;;;4.00;1.67;;;;;;;;;;4995826;28;20397;-74
2023/09/15 09:48:39;;;;;;;2.70;1.67;;;;;;;;;;4995472;28;20057;-74
2023/09/15 09:51:05;;;;;;;2.50;1.80;;;;;;;;;;4977885;28;20027;-74
2023/09/15 09:53:32;;;;;;;2.65;1.75;;;;;;;;;;4995377;28;20081;-74
2023/09/15 09:55:58;;;;;;;3.17;1.42;;;;;;;;;;4995178;28;20049;-74
2023/09/15 09:58:24;;;;;;;1.35;1.10;;;;;;;;;;4995326;28;20026;-73
2023/09/15 10:00:53;;;;;;;4.25;1.70;;;;;;;;;;4995390;28;20072;-73
2023/09/15 10:03:19;;;;;;;5.35;1.60;;;;;;;;;;4978113;28;20034;-74
2023/09/15 10:05:44;;;;;;;2.38;1.70;;;;;;;;;;4995360;28;20022;-74
2023/09/15 10:08:10;;;;;;;2.70;1.60;;;;;;;;;;4995215;28;20018;-74
2023/09/15 10:10:40;;;;;;;5.15;1.58;;;;;;;;;;4995145;28;20030;-74
2023/09/15 10:13:10;;;;;;;2.00;1.23;;;;;;;;;;4977212;28;20038;-74
2023/09/15 10:15:36;;;;;;;1.80;0.95;;;;;;;;;;4995104;28;20033;-74
2023/09/15 10:18:04;;;;;;;3.90;1.50;;;;;;;;;;4977302;28;20030;-74
2023/09/15 10:20:30;;;;;;;3.25;1.50;;;;;;;;;;4995331;28;20022;-74
2023/09/15 10:22:56;;;;;;;2.88;1.50;;;;;;;;;;4994780;28;20053;-74
2023/09/15 10:25:21;;;;;;;10.15;1.05;;;;;;;;;;4994907;28;20049;-73
2023/09/15 10:27:46;;;;;;;2.35;1.30;;;;;;;;;;4994481;28;20033;-74
2023/09/15 10:30:12;;;;;;;3.63;1.30;;;;;;;;;;4994641;28;20026;-74
2023/09/15 10:32:39;;;;;;;1.63;1.33;;;;;;;;;;4994506;28;20018;-74
2023/09/15 10:35:05;;;;;;;3.75;1.45;;;;;;;;;;4994576;28;20031;-74
2023/09/15 10:37:32;;;;;;;1.83;1.50;;;;;;;;;;4994719;28;20494;-74
2023/09/15 10:39:59;;;;;;;2.78;1.60;;;;;;;;;;4994990;28;20022;-74
2023/09/15 10:42:24;;;;;;;2.22;1.50;;;;;;;;;;4994366;28;20030;-74
2023/09/15 10:44:50;;;;;;;4.43;1.40;;;;;;;;;;4976787;28;20030;-74
2023/09/15 10:47:19;;;;;;;2.55;1.45;;;;;;;;;;4994711;28;20366;-74
2023/09/15 10:49:52;;;;;;;2.03;1.50;;;;;;;;;;4994958;28;20025;-74
2023/09/15 10:52:30;;;;;;;2.38;1.30;;;;;;;;;;4994548;28;20071;-74
2023/09/15 10:54:56;;;;;;;2.03;1.52;;;;;;;;;;4994430;28;20050;-74
2023/09/15 10:57:22;;;;;;;1.10;1.00;;;;;;;;;;4975988;28;20486;-74
2023/09/15 10:59:49;;;;;;;2.13;1.60;;;;;;;;;;4994136;28;20101;-74
2023/09/15 11:02:14;;;;;;;2.92;1.90;;;;;;;;;;4993015;28;20018;-75
2023/09/15 11:04:40;;;;;;;2.50;1.52;;;;;;;;;;4993780;28;20057;-74
2023/09/15 11:07:06;;;;;;;2.13;1.40;;;;;;;;;;4994066;28;20481;-75
2023/09/15 11:09:31;;;;;;;2.50;1.50;;;;;;;;;;4994039;28;20462;-74
2023/09/15 11:11:56;;;;;;;3.70;1.50;;;;;;;;;;4976564;28;20397;-74
2023/09/15 11:14:22;;;;;;;1.95;1.38;;;;;;;;;;4976917;28;20046;-74
2023/09/15 11:16:56;;;;;;;2.45;1.27;;;;;;;;;;4976542;28;20022;-74
2023/09/15 11:19:24;;;;;;;2.33;1.40;;;;;;;;;;4976608;28;20113;-75
2023/09/15 11:21:50;;;;;;;2.58;1.70;;;;;;;;;;4994213;28;20030;-75
2023/09/15 11:24:16;;;;;;;2.42;1.38;;;;;;;;;;4993895;28;20477;-75
2023/09/15 11:26:46;;;;;;;2.25;1.40;;;;;;;;;;4994242;28;20408;-75
2023/09/15 11:29:11;;;;;;;4.50;1.65;;;;;;;;;;4994095;28;20019;-74
2023/09/15 11:31:37;;;;;;;2.40;1.48;;;;;;;;;;4994322;28;20033;-74
2023/09/15 11:34:05;;;;;;;3.13;1.45;;;;;;;;;;4994029;28;20113;-74
2023/09/15 11:36:35;;;;;;;2.85;1.52;;;;;;;;;;4976477;28;20461;-74
2023/09/15 11:39:04;;;;;;;4.30;1.48;;;;;;;;;;4976396;28;20552;-74
2023/09/15 11:41:31;;;;;;;2.03;1.40;;;;;;;;;;4994272;28;20061;-75
2023/09/15 11:43:57;;;;;;;1.95;1.45;;;;;;;;;;4993965;28;20093;-74
2023/09/15 11:46:23;;;;;;;2.22;1.40;;;;;;;;;;4993844;28;20057;-74
2023/09/15 11:48:48;;;;;;;2.15;1.70;;;;;;;;;;4994284;28;20433;-74
2023/09/15 11:51:14;;;;;;;2.67;1.63;;;;;;;;;;4993709;28;20018;-75
2023/09/15 11:53:41;;;;;;;3.50;1.67;;;;;;;;;;4976192;28;20042;-74
2023/09/15 11:56:08;;;;;;;1.65;1.40;;;;;;;;;;4993851;28;20081;-74
2023/09/15 11:58:33;;;;;;;1.63;1.38;;;;;;;;;;4975882;28;20493;-74
2023/09/15 12:01:01;;;;;;;3.53;1.50;;;;;;;;;;4993640;28;20026;-75
2023/09/15 12:03:29;;;;;;;2.35;1.45;;;;;;;;;;4993567;28;20026;-74
2023/09/15 12:05:55;;;;;;;1.88;1.50;;;;;;;;;;4993769;28;20506;-75
2023/09/15 12:08:23;;;;;;;2.22;1.48;;;;;;;;;;4993551;28;20030;-75
2023/09/15 12:10:49;;;;;;;4.43;1.63;;;;;;;;;;4993325;28;20033;-73
2023/09/15 12:13:15;;;;;;;2.75;1.70;;;;;;;;;;4993280;28;20026;-74
2023/09/15 12:15:40;;;;;;;2.78;1.73;;;;;;;;;;4976197;28;20504;-74
2023/09/15 12:18:05;;;;;;;2.07;1.47;;;;;;;;;;4993435;28;20035;-74
2023/09/15 12:20:34;;;;;;;2.35;1.58;;;;;;;;;;4993294;28;20363;-74
2023/09/15 12:22:59;;;;;;;2.67;1.50;;;;;;;;;;4993305;28;20029;-74
2023/09/15 12:25:25;;;;;;;2.55;1.70;;;;;;;;;;4993657;28;20027;-74
2023/09/15 12:27:52;;;;;;;2.63;1.38;;;;;;;;;;4993400;28;20034;-74
2023/09/15 12:30:19;;;;;;;1.98;1.42;;;;;;;;;;4993495;28;20057;-75
2023/09/15 12:32:46;;;;;;;2.28;1.60;;;;;;;;;;4993477;28;20026;-74
2023/09/15 12:35:14;;;;;;;2.95;1.50;;;;;;;;;;4994485;28;20026;-74
2023/09/15 12:37:42;;;;;;;2.78;1.60;;;;;;;;;;4979766;28;20026;-74
2023/09/15 12:40:08;;;;;;;2.60;1.63;;;;;;;;;;4979348;28;20022;-74
2023/09/15 12:42:33;;;;;;;2.30;1.75;;;;;;;;;;4996619;28;20026;-75
2023/09/15 12:44:58;;;;;;;6.55;1.73;;;;;;;;;;4979238;28;20468;-74
2023/09/15 12:47:23;;;;;;;1.90;1.50;;;;;;;;;;4996509;28;20026;-75
2023/09/15 12:49:49;;;;;;;2.23;1.70;;;;;;;;;;4996738;28;20437;-74
2023/09/15 12:52:15;;;;;;;1.97;1.50;;;;;;;;;;4996724;28;20667;-74
2023/09/15 12:54:40;;;;;;;3.53;1.52;;;;;;;;;;4996578;28;20259;-74
2023/09/15 12:57:05;;;;;;;7.72;1.80;;;;;;;;;;4997144;28;20485;-74
2023/09/15 12:59:31;;;;;;;1.52;1.25;;;;;;;;;;4996525;28;20030;-74
2023/09/15 13:01:57;;;;;;;1.73;1.40;;;;;;;;;;4996401;28;20034;-74
2023/09/15 13:04:23;;;;;;;2.42;1.63;;;;;;;;;;4996353;28;20028;-75
2023/09/15 13:06:50;;;;;;;2.17;1.60;;;;;;;;;;4979073;28;20396;-75
2023/09/15 13:09:15;;;;;;;2.53;1.60;;;;;;;;;;4978714;28;20022;-75
2023/09/15 13:11:40;;;;;;;3.22;1.60;;;;;;;;;;4996057;28;20500;-74
2023/09/15 13:14:05;;;;;;;2.60;1.70;;;;;;;;;;4978639;28;20029;-74
2023/09/15 13:16:32;;;;;;;2.87;1.60;;;;;;;;;;4996424;28;20116;-75
2023/09/15 13:18:57;;;;;;;3.03;1.70;;;;;;;;;;4996544;28;20291;-75
2023/09/15 13:21:28;;;;;;;3.33;1.70;;;;;;;;;;4978996;28;20030;-76
2023/09/15 13:23:53;;;;;;;2.50;1.80;;;;;;;;;;4979540;28;20635;-75
2023/09/15 13:26:18;;;;;;;2.65;1.60;;;;;;;;;;4997044;28;20046;-75
2023/09/15 13:28:44;;;;;;;4.68;1.67;;;;;;;;;;4995880;28;20449;-75
2023/09/15 13:31:09;;;;;;;2.80;1.80;;;;;;;;;;4995381;28;20026;-75
2023/09/15 13:33:35;;;;;;;2.13;1.65;;;;;;;;;;4978130;28;20252;-75
2023/09/15 13:36:02;;;;;;;3.45;1.70;;;;;;;;;;4995739;28;20026;-75
2023/09/15 13:38:27;;;;;;;2.88;1.50;;;;;;;;;;4995403;28;20022;-75
2023/09/15 13:40:52;;;;;;;2.33;1.60;;;;;;;;;;4995634;28;20473;-75
2023/09/15 13:43:18;;;;;;;4.35;1.80;;;;;;;;;;4978097;28;20030;-75
2023/09/15 13:45:52;;;;;;;2.97;1.80;;;;;;;;;;4994865;28;20038;-75
2023/09/15 13:48:18;;;;;;;2.60;1.77;;;;;;;;;;4977369;28;20433;-76
2023/09/15 13:50:44;;;;;;;5.45;1.70;;;;;;;;;;4995858;28;20383;-75
2023/09/15 13:53:09;;;;;;;4.10;1.60;;;;;;;;;;4977725;28;20026;-75
2023/09/15 13:55:34;;;;;;;2.53;1.83;;;;;;;;;;4995486;28;20026;-74
2023/09/15 13:58:03;;;;;;;3.10;1.88;;;;;;;;;;4995279;28;20034;-74
2023/09/15 14:00:29;;;;;;;3.30;1.40;;;;;;;;;;4978257;28;20030;-74
2023/09/15 14:02:54;;;;;;;1.92;1.40;;;;;;;;;;4995058;28;20029;-74
2023/09/15 14:05:20;;;;;;;2.60;1.90;;;;;;;;;;4995534;28;20117;-76
2023/09/15 14:07:49;;;;;;;5.38;1.80;;;;;;;;;;4995136;28;20038;-76
2023/09/15 14:10:14;;;;;;;4.03;2.30;;;;;;;;;;4994727;28;20473;-77
2023/09/15 14:12:40;;;;;;;3.53;2.15;;;;;;;;;;4994674;28;20033;-77
2023/09/15 14:15:09;;;;;;;3.72;2.00;;;;;;;;;;4994714;28;20076;-77
2023/09/15 14:17:35;;;;;;;6.30;1.83;;;;;;;;;;4977264;28;20117;-76
2023/09/15 14:20:00;;;;;;;3.10;1.40;;;;;;;;;;4977274;28;20113;-76
2023/09/15 14:22:27;;;;;;;1.90;1.30;;;;;;;;;;4976946;28;20038;-75
2023/09/15 14:25:00;;;;;;;2.30;1.67;;;;;;;;;;4994598;28;20064;-76
2023/09/15 14:27:29;;;;;;;2.10;1.70;;;;;;;;;;4962961;28;20030;-76
2023/09/15 14:30:02;;;;;;;2.53;1.55;;;;;;;;;;4977306;28;20050;-76
2023/09/15 14:32:30;;;;;;;4.65;1.80;;;;;;;;;;4978221;28;20034;-76
2023/09/15 14:35:27;;;;;;;2.95;1.55;;;;;;;;;;4994707;28;20034;-76
2023/09/15 14:37:53;;;;;;;2.58;1.83;;;;;;;;;;4994413;28;20485;-76